sensor_id;sensor_type;location;lat;lon;timestamp;pressure;altitude;pressure_sealevel;temperature;humidity
31538;BME280;18147;51.952;6.146;2022-10-15T00:01:32;100666.97;;;11.01;100.00
31538;BME280;18147;51.952;6.146;2022-10-15T00:03:59;100667.59;;;11.04;100.00
31538;BME280;18147;51.952;6.146;2022-10-15T00:06:24;100670.25;;;11.04;100.00
31538;BME280;18147;51.952;6.146;2022-10-15T00:08:50;100677.50;;;10.89;100.00
31538;BME280;18147;51.952;6.146;2022-10-15T00:11:21;100678.44;;;10.88;100.00
31538;BME280;18147;51.952;6.146;2022-10-15T00:13:48;100666.69;;;10.78;100.00
31538;BME280;18147;51.952;6.146;2022-10-15T00:16:20;100672.31;;;10.74;100.00
31538;BME280;18147;51.952;6.146;2022-10-15T00:18:46;100663.22;;;10.63;100.00
31538;BME280;18147;51.952;6.146;2022-10-15T00:21:13;100655.66;;;10.57;100.00
31538;BME280;18147;51.952;6.146;2022-10-15T00:23:40;100659.81;;;10.61;100.00
31538;BME280;18147;51.952;6.146;2022-10-15T00:26:10;100661.94;;;10.56;100.00
31538;BME280;18147;51.952;6.146;2022-10-15T00:28:36;100660.97;;;10.57;100.00
31538;BME280;18147;51.952;6.146;2022-10-15T00:31:04;100658.84;;;10.50;100.00
31538;BME280;18147;51.952;6.146;2022-10-15T00:33:30;100662.53;;;10.47;100.00
31538;BME280;18147;51.952;6.146;2022-10-15T00:36:04;100667.13;;;10.45;100.00
31538;BME280;18147;51.952;6.146;2022-10-15T00:38:31;100670.59;;;10.33;100.00
31538;BME280;18147;51.952;6.146;2022-10-15T00:40:57;100672.81;;;10.26;100.00
31538;BME280;18147;51.952;6.146;2022-10-15T00:43:43;100667.34;;;10.28;100.00
31538;BME280;18147;51.952;6.146;2022-10-15T00:46:16;100666.03;;;10.21;100.00
31538;BME280;18147;51.952;6.146;2022-10-15T00:48:45;100670.31;;;10.09;100.00
31538;BME280;18147;51.952;6.146;2022-10-15T00:51:13;100676.81;;;10.05;100.00
31538;BME280;18147;51.952;6.146;2022-10-15T00:53:39;100675.84;;;10.06;100.00
31538;BME280;18147;51.952;6.146;2022-10-15T00:56:05;100665.50;;;10.01;100.00
31538;BME280;18147;51.952;6.146;2022-10-15T00:58:31;100668.84;;;9.91;100.00
31538;BME280;18147;51.952;6.146;2022-10-15T01:00:59;100670.25;;;9.96;100.00
31538;BME280;18147;51.952;6.146;2022-10-15T01:03:25;100665.06;;;9.80;100.00
31538;BME280;18147;51.952;6.146;2022-10-15T01:05:51;100656.78;;;9.85;100.00
31538;BME280;18147;51.952;6.146;2022-10-15T01:08:17;100655.91;;;9.84;100.00
31538;BME280;18147;51.952;6.146;2022-10-15T01:16:19;100651.63;;;9.68;100.00
31538;BME280;18147;51.952;6.146;2022-10-15T01:18:57;100656.50;;;9.61;100.00
31538;BME280;18147;51.952;6.146;2022-10-15T01:21:50;100656.59;;;9.59;100.00
31538;BME280;18147;51.952;6.146;2022-10-15T01:27:21;100657.28;;;9.49;100.00
31538;BME280;18147;51.952;6.146;2022-10-15T01:30:21;100647.78;;;9.45;100.00
31538;BME280;18147;51.952;6.146;2022-10-15T01:33:03;100639.38;;;9.37;100.00
31538;BME280;18147;51.952;6.146;2022-10-15T01:36:08;100645.81;;;9.18;100.00
31538;BME280;18147;51.952;6.146;2022-10-15T01:41:08;100641.38;;;9.19;100.00
31538;BME280;18147;51.952;6.146;2022-10-15T01:43:42;100639.78;;;9.30;100.00
31538;BME280;18147;51.952;6.146;2022-10-15T01:46:52;100636.84;;;9.35;100.00
31538;BME280;18147;51.952;6.146;2022-10-15T01:49:25;100635.22;;;9.47;100.00
31538;BME280;18147;51.952;6.146;2022-10-15T01:51:53;100633.97;;;9.52;100.00
31538;BME280;18147;51.952;6.146;2022-10-15T01:54:22;100630.84;;;9.60;100.00
31538;BME280;18147;51.952;6.146;2022-10-15T01:56:51;100626.25;;;9.62;100.00
31538;BME280;18147;51.952;6.146;2022-10-15T01:59:27;100628.06;;;9.62;100.00
31538;BME280;18147;51.952;6.146;2022-10-15T02:01:54;100622.75;;;9.47;100.00
31538;BME280;18147;51.952;6.146;2022-10-15T02:04:30;100628.34;;;9.57;100.00
31538;BME280;18147;51.952;6.146;2022-10-15T02:07:08;100623.59;;;9.62;100.00
31538;BME280;18147;51.952;6.146;2022-10-15T02:09:47;100614.31;;;9.55;100.00
31538;BME280;18147;51.952;6.146;2022-10-15T02:15:16;100619.25;;;9.47;100.00
31538;BME280;18147;51.952;6.146;2022-10-15T02:18:04;100613.91;;;9.61;100.00
31538;BME280;18147;51.952;6.146;2022-10-15T02:20:41;100624.38;;;9.64;100.00
31538;BME280;18147;51.952;6.146;2022-10-15T02:23:14;100621.09;;;9.73;100.00
31538;BME280;18147;51.952;6.146;2022-10-15T02:25:42;100619.13;;;9.77;100.00
31538;BME280;18147;51.952;6.146;2022-10-15T02:28:11;100620.81;;;9.78;100.00
31538;BME280;18147;51.952;6.146;2022-10-15T02:30:41;100620.22;;;9.87;100.00
31538;BME280;18147;51.952;6.146;2022-10-15T02:33:10;100610.34;;;9.89;100.00
31538;BME280;18147;51.952;6.146;2022-10-15T02:35:37;100602.16;;;9.92;100.00
31538;BME280;18147;51.952;6.146;2022-10-15T02:38:06;100601.97;;;9.95;100.00
31538;BME280;18147;51.952;6.146;2022-10-15T02:40:35;100610.41;;;10.02;100.00
31538;BME280;18147;51.952;6.146;2022-10-15T02:43:05;100611.81;;;10.07;100.00
31538;BME280;18147;51.952;6.146;2022-10-15T02:45:31;100601.53;;;10.16;100.00
31538;BME280;18147;51.952;6.146;2022-10-15T02:47:57;100595.63;;;10.25;100.00
31538;BME280;18147;51.952;6.146;2022-10-15T02:50:23;100597.78;;;10.32;100.00
31538;BME280;18147;51.952;6.146;2022-10-15T02:52:48;100594.91;;;10.35;100.00
31538;BME280;18147;51.952;6.146;2022-10-15T02:55:14;100587.03;;;10.47;100.00
31538;BME280;18147;51.952;6.146;2022-10-15T02:57:40;100587.94;;;10.60;100.00
31538;BME280;18147;51.952;6.146;2022-10-15T03:00:07;100581.22;;;10.54;100.00
31538;BME280;18147;51.952;6.146;2022-10-15T03:02:33;100580.56;;;10.63;100.00
31538;BME280;18147;51.952;6.146;2022-10-15T03:04:59;100574.06;;;10.68;100.00
31538;BME280;18147;51.952;6.146;2022-10-15T03:07:24;100571.94;;;10.60;100.00
31538;BME280;18147;51.952;6.146;2022-10-15T03:09:50;100565.03;;;10.70;100.00
31538;BME280;18147;51.952;6.146;2022-10-15T03:12:15;100562.44;;;10.69;100.00
31538;BME280;18147;51.952;6.146;2022-10-15T03:14:41;100556.06;;;10.71;100.00
31538;BME280;18147;51.952;6.146;2022-10-15T03:17:06;100561.09;;;10.76;100.00
31538;BME280;18147;51.952;6.146;2022-10-15T03:19:32;100563.09;;;10.72;100.00
31538;BME280;18147;51.952;6.146;2022-10-15T03:21:57;100559.56;;;10.72;100.00
31538;BME280;18147;51.952;6.146;2022-10-15T03:24:24;100561.38;;;10.71;100.00
31538;BME280;18147;51.952;6.146;2022-10-15T03:26:51;100554.44;;;10.69;100.00
31538;BME280;18147;51.952;6.146;2022-10-15T03:29:16;100557.53;;;10.62;100.00
31538;BME280;18147;51.952;6.146;2022-10-15T03:31:56;100552.44;;;10.72;100.00
31538;BME280;18147;51.952;6.146;2022-10-15T03:34:22;100553.69;;;10.67;100.00
31538;BME280;18147;51.952;6.146;2022-10-15T03:36:47;100550.19;;;10.66;100.00
31538;BME280;18147;51.952;6.146;2022-10-15T03:39:13;100546.34;;;10.70;100.00
31538;BME280;18147;51.952;6.146;2022-10-15T03:41:39;100550.50;;;10.61;100.00
31538;BME280;18147;51.952;6.146;2022-10-15T03:44:06;100549.97;;;10.69;100.00
31538;BME280;18147;51.952;6.146;2022-10-15T03:46:33;100554.88;;;10.50;100.00
31538;BME280;18147;51.952;6.146;2022-10-15T03:48:59;100548.88;;;10.59;100.00
31538;BME280;18147;51.952;6.146;2022-10-15T03:51:25;100546.44;;;10.69;100.00
31538;BME280;18147;51.952;6.146;2022-10-15T03:53:56;100544.63;;;10.69;100.00
31538;BME280;18147;51.952;6.146;2022-10-15T03:56:21;100537.81;;;10.78;100.00
31538;BME280;18147;51.952;6.146;2022-10-15T03:58:47;100543.25;;;10.76;100.00
31538;BME280;18147;51.952;6.146;2022-10-15T04:01:16;100539.13;;;10.85;100.00
31538;BME280;18147;51.952;6.146;2022-10-15T04:03:41;100541.88;;;10.83;100.00
31538;BME280;18147;51.952;6.146;2022-10-15T04:06:07;100547.41;;;10.93;100.00
31538;BME280;18147;51.952;6.146;2022-10-15T04:08:34;100537.81;;;11.03;100.00
31538;BME280;18147;51.952;6.146;2022-10-15T04:11:10;100544.75;;;11.06;100.00
31538;BME280;18147;51.952;6.146;2022-10-15T04:13:36;100535.78;;;11.07;100.00
31538;BME280;18147;51.952;6.146;2022-10-15T04:16:05;100549.97;;;11.07;100.00
31538;BME280;18147;51.952;6.146;2022-10-15T04:18:31;100535.78;;;11.20;100.00
31538;BME280;18147;51.952;6.146;2022-10-15T04:20:58;100538.22;;;11.23;100.00
31538;BME280;18147;51.952;6.146;2022-10-15T04:23:24;100541.41;;;11.28;100.00
31538;BME280;18147;51.952;6.146;2022-10-15T04:26:08;100539.31;;;11.20;100.00
31538;BME280;18147;51.952;6.146;2022-10-15T04:28:34;100549.66;;;11.25;100.00
31538;BME280;18147;51.952;6.146;2022-10-15T04:31:00;100545.69;;;11.30;100.00
31538;BME280;18147;51.952;6.146;2022-10-15T04:33:27;100547.41;;;11.31;100.00
31538;BME280;18147;51.952;6.146;2022-10-15T04:36:07;100548.03;;;11.35;100.00
31538;BME280;18147;51.952;6.146;2022-10-15T04:38:51;100556.13;;;11.33;100.00
31538;BME280;18147;51.952;6.146;2022-10-15T04:41:25;100554.75;;;11.28;100.00
31538;BME280;18147;51.952;6.146;2022-10-15T04:43:57;100562.25;;;11.23;100.00
31538;BME280;18147;51.952;6.146;2022-10-15T04:46:23;100562.34;;;11.21;100.00
31538;BME280;18147;51.952;6.146;2022-10-15T04:48:51;100561.81;;;11.29;100.00
31538;BME280;18147;51.952;6.146;2022-10-15T04:51:19;100566.63;;;11.24;100.00
31538;BME280;18147;51.952;6.146;2022-10-15T04:54:00;100565.16;;;11.20;100.00
31538;BME280;18147;51.952;6.146;2022-10-15T04:56:27;100557.78;;;11.10;100.00
31538;BME280;18147;51.952;6.146;2022-10-15T04:58:53;100553.28;;;11.11;100.00
31538;BME280;18147;51.952;6.146;2022-10-15T05:01:19;100548.81;;;11.11;100.00
31538;BME280;18147;51.952;6.146;2022-10-15T05:04:10;100551.16;;;11.16;100.00
31538;BME280;18147;51.952;6.146;2022-10-15T05:06:38;100551.88;;;11.18;100.00
31538;BME280;18147;51.952;6.146;2022-10-15T05:09:15;100550.84;;;11.21;100.00
31538;BME280;18147;51.952;6.146;2022-10-15T05:11:46;100542.28;;;11.15;100.00
31538;BME280;18147;51.952;6.146;2022-10-15T05:14:11;100539.91;;;11.24;100.00
31538;BME280;18147;51.952;6.146;2022-10-15T05:16:37;100542.25;;;11.28;100.00
31538;BME280;18147;51.952;6.146;2022-10-15T05:19:05;100540.56;;;11.27;100.00
31538;BME280;18147;51.952;6.146;2022-10-15T05:21:33;100540.56;;;11.40;100.00
31538;BME280;18147;51.952;6.146;2022-10-15T05:24:03;100539.34;;;11.44;100.00
31538;BME280;18147;51.952;6.146;2022-10-15T05:26:53;100542.66;;;11.48;100.00
31538;BME280;18147;51.952;6.146;2022-10-15T05:29:21;100534.78;;;11.46;100.00
31538;BME280;18147;51.952;6.146;2022-10-15T05:31:49;100536.25;;;11.50;100.00
31538;BME280;18147;51.952;6.146;2022-10-15T05:34:19;100532.84;;;11.48;100.00
31538;BME280;18147;51.952;6.146;2022-10-15T05:37:07;100545.00;;;11.52;100.00
31538;BME280;18147;51.952;6.146;2022-10-15T05:39:33;100541.69;;;11.49;100.00
31538;BME280;18147;51.952;6.146;2022-10-15T05:41:58;100552.03;;;11.53;100.00
31538;BME280;18147;51.952;6.146;2022-10-15T05:44:36;100549.63;;;11.50;100.00
31538;BME280;18147;51.952;6.146;2022-10-15T05:47:02;100558.88;;;11.57;100.00
31538;BME280;18147;51.952;6.146;2022-10-15T05:49:27;100555.22;;;11.58;100.00
31538;BME280;18147;51.952;6.146;2022-10-15T05:52:15;100557.91;;;11.58;100.00
31538;BME280;18147;51.952;6.146;2022-10-15T05:55:04;100569.03;;;11.65;100.00
31538;BME280;18147;51.952;6.146;2022-10-15T05:57:29;100562.78;;;11.64;100.00
31538;BME280;18147;51.952;6.146;2022-10-15T05:59:55;100564.28;;;11.68;100.00
31538;BME280;18147;51.952;6.146;2022-10-15T06:02:20;100574.31;;;11.78;100.00
31538;BME280;18147;51.952;6.146;2022-10-15T06:04:46;100574.31;;;11.78;100.00
31538;BME280;18147;51.952;6.146;2022-10-15T06:07:12;100570.28;;;11.85;100.00
31538;BME280;18147;51.952;6.146;2022-10-15T06:09:37;100572.81;;;11.86;100.00
31538;BME280;18147;51.952;6.146;2022-10-15T06:12:03;100572.59;;;11.89;100.00
31538;BME280;18147;51.952;6.146;2022-10-15T06:14:28;100571.06;;;11.98;100.00
31538;BME280;18147;51.952;6.146;2022-10-15T06:16:54;100568.06;;;12.03;100.00
31538;BME280;18147;51.952;6.146;2022-10-15T06:19:19;100563.16;;;11.97;100.00
31538;BME280;18147;51.952;6.146;2022-10-15T06:21:45;100568.41;;;11.98;100.00
31538;BME280;18147;51.952;6.146;2022-10-15T06:24:11;100563.91;;;11.99;100.00
31538;BME280;18147;51.952;6.146;2022-10-15T06:26:38;100563.81;;;12.00;100.00
31538;BME280;18147;51.952;6.146;2022-10-15T06:29:03;100566.34;;;12.02;100.00
31538;BME280;18147;51.952;6.146;2022-10-15T06:31:30;100566.22;;;12.03;100.00
31538;BME280;18147;51.952;6.146;2022-10-15T06:33:55;100559.69;;;12.07;100.00
31538;BME280;18147;51.952;6.146;2022-10-15T06:36:20;100566.03;;;12.06;100.00
31538;BME280;18147;51.952;6.146;2022-10-15T06:38:48;100568.56;;;12.08;100.00
31538;BME280;18147;51.952;6.146;2022-10-15T06:41:14;100570.69;;;12.15;100.00
31538;BME280;18147;51.952;6.146;2022-10-15T06:43:40;100569.94;;;12.13;100.00
31538;BME280;18147;51.952;6.146;2022-10-15T06:46:06;100572.13;;;12.19;100.00
31538;BME280;18147;51.952;6.146;2022-10-15T06:48:32;100576.41;;;12.22;100.00
31538;BME280;18147;51.952;6.146;2022-10-15T06:50:58;100577.06;;;12.26;100.00
31538;BME280;18147;51.952;6.146;2022-10-15T06:53:25;100582.78;;;12.32;100.00
31538;BME280;18147;51.952;6.146;2022-10-15T06:55:50;100585.97;;;12.37;100.00
31538;BME280;18147;51.952;6.146;2022-10-15T06:58:16;100582.22;;;12.40;100.00
31538;BME280;18147;51.952;6.146;2022-10-15T07:00:41;100576.47;;;12.33;100.00
31538;BME280;18147;51.952;6.146;2022-10-15T07:03:07;100577.31;;;12.34;100.00
31538;BME280;18147;51.952;6.146;2022-10-15T07:05:33;100574.63;;;12.34;100.00
31538;BME280;18147;51.952;6.146;2022-10-15T07:07:59;100567.97;;;12.39;100.00
31538;BME280;18147;51.952;6.146;2022-10-15T07:10:26;100574.63;;;12.34;100.00
31538;BME280;18147;51.952;6.146;2022-10-15T07:12:52;100580.75;;;12.36;100.00
31538;BME280;18147;51.952;6.146;2022-10-15T07:15:19;100577.94;;;12.37;100.00
31538;BME280;18147;51.952;6.146;2022-10-15T07:17:49;100584.00;;;12.39;100.00
31538;BME280;18147;51.952;6.146;2022-10-15T07:20:15;100583.94;;;12.41;100.00
31538;BME280;18147;51.952;6.146;2022-10-15T07:22:41;100583.25;;;12.50;100.00
31538;BME280;18147;51.952;6.146;2022-10-15T07:25:07;100586.41;;;12.55;100.00
31538;BME280;18147;51.952;6.146;2022-10-15T07:27:34;100584.75;;;12.65;100.00
31538;BME280;18147;51.952;6.146;2022-10-15T07:29:59;100574.63;;;12.58;100.00
31538;BME280;18147;51.952;6.146;2022-10-15T07:32:25;100584.13;;;12.62;100.00
31538;BME280;18147;51.952;6.146;2022-10-15T07:34:50;100584.16;;;12.73;100.00
31538;BME280;18147;51.952;6.146;2022-10-15T07:37:16;100582.59;;;12.82;100.00
31538;BME280;18147;51.952;6.146;2022-10-15T07:39:41;100579.94;;;12.93;100.00
31538;BME280;18147;51.952;6.146;2022-10-15T07:42:07;100577.28;;;13.04;100.00
31538;BME280;18147;51.952;6.146;2022-10-15T07:44:32;100574.50;;;13.17;100.00
31538;BME280;18147;51.952;6.146;2022-10-15T07:46:58;100575.25;;;13.30;100.00
31538;BME280;18147;51.952;6.146;2022-10-15T07:49:23;100570.13;;;13.50;100.00
31538;BME280;18147;51.952;6.146;2022-10-15T07:51:48;100566.41;;;13.41;100.00
31538;BME280;18147;51.952;6.146;2022-10-15T07:54:14;100572.22;;;13.35;100.00
31538;BME280;18147;51.952;6.146;2022-10-15T07:56:39;100558.81;;;13.35;100.00
31538;BME280;18147;51.952;6.146;2022-10-15T07:59:07;100569.66;;;13.44;100.00
31538;BME280;18147;51.952;6.146;2022-10-15T08:01:32;100568.09;;;13.42;100.00
31538;BME280;18147;51.952;6.146;2022-10-15T08:03:57;100565.28;;;13.43;100.00
31538;BME280;18147;51.952;6.146;2022-10-15T08:06:23;100564.41;;;13.54;100.00
31538;BME280;18147;51.952;6.146;2022-10-15T08:08:48;100561.63;;;13.56;100.00
31538;BME280;18147;51.952;6.146;2022-10-15T08:11:15;100569.19;;;13.62;100.00
31538;BME280;18147;51.952;6.146;2022-10-15T08:13:42;100563.38;;;13.89;100.00
31538;BME280;18147;51.952;6.146;2022-10-15T08:16:09;100568.94;;;14.08;100.00
31538;BME280;18147;51.952;6.146;2022-10-15T08:18:35;100578.59;;;14.11;100.00
31538;BME280;18147;51.952;6.146;2022-10-15T08:21:02;100570.03;;;14.17;100.00
31538;BME280;18147;51.952;6.146;2022-10-15T08:23:28;100574.97;;;14.33;100.00
31538;BME280;18147;51.952;6.146;2022-10-15T08:25:53;100572.41;;;14.31;100.00
31538;BME280;18147;51.952;6.146;2022-10-15T08:28:19;100571.34;;;14.22;100.00
31538;BME280;18147;51.952;6.146;2022-10-15T08:30:44;100569.28;;;14.26;100.00
31538;BME280;18147;51.952;6.146;2022-10-15T08:33:10;100558.78;;;14.55;100.00
31538;BME280;18147;51.952;6.146;2022-10-15T08:35:42;100567.44;;;15.00;100.00
31538;BME280;18147;51.952;6.146;2022-10-15T08:38:10;100555.28;;;15.27;100.00
31538;BME280;18147;51.952;6.146;2022-10-15T08:40:36;100550.56;;;15.19;100.00
31538;BME280;18147;51.952;6.146;2022-10-15T08:43:03;100546.22;;;14.97;100.00
31538;BME280;18147;51.952;6.146;2022-10-15T08:45:33;100550.44;;;15.21;100.00
31538;BME280;18147;51.952;6.146;2022-10-15T08:53:14;100538.38;;;14.85;100.00
31538;BME280;18147;51.952;6.146;2022-10-15T08:55:48;100533.00;;;14.85;100.00
31538;BME280;18147;51.952;6.146;2022-10-15T08:58:19;100528.03;;;14.80;100.00
31538;BME280;18147;51.952;6.146;2022-10-15T09:00:53;100520.56;;;14.84;100.00
31538;BME280;18147;51.952;6.146;2022-10-15T09:14:03;100507.19;;;15.24;100.00
31538;BME280;18147;51.952;6.146;2022-10-15T09:16:36;100512.31;;;15.27;100.00
31538;BME280;18147;51.952;6.146;2022-10-15T09:19:13;100509.41;;;15.49;100.00
31538;BME280;18147;51.952;6.146;2022-10-15T09:21:40;100505.75;;;15.60;100.00
31538;BME280;18147;51.952;6.146;2022-10-15T09:24:09;100508.97;;;15.44;100.00
31538;BME280;18147;51.952;6.146;2022-10-15T09:26:49;100506.75;;;15.59;100.00
31538;BME280;18147;51.952;6.146;2022-10-15T09:34:53;100495.47;;;15.75;100.00
31538;BME280;18147;51.952;6.146;2022-10-15T09:37:32;100490.28;;;15.83;100.00
31538;BME280;18147;51.952;6.146;2022-10-15T09:42:44;100474.16;;;16.22;100.00
31538;BME280;18147;51.952;6.146;2022-10-15T09:45:13;100472.56;;;16.19;100.00
31538;BME280;18147;51.952;6.146;2022-10-15T09:47:40;100485.03;;;16.01;100.00
31538;BME280;18147;51.952;6.146;2022-10-15T09:50:08;100483.91;;;15.94;100.00
31538;BME280;18147;51.952;6.146;2022-10-15T09:58:00;100468.72;;;16.41;100.00
31538;BME280;18147;51.952;6.146;2022-10-15T10:00:50;100458.19;;;16.67;100.00
31538;BME280;18147;51.952;6.146;2022-10-15T10:03:16;100459.50;;;16.63;100.00
31538;BME280;18147;51.952;6.146;2022-10-15T10:05:42;100447.56;;;16.75;100.00
31538;BME280;18147;51.952;6.146;2022-10-15T10:10:44;100444.44;;;17.17;100.00
31538;BME280;18147;51.952;6.146;2022-10-15T10:13:39;100442.47;;;17.09;100.00
31538;BME280;18147;51.952;6.146;2022-10-15T10:16:07;100451.88;;;16.96;100.00
31538;BME280;18147;51.952;6.146;2022-10-15T10:18:34;100446.69;;;16.85;100.00
31538;BME280;18147;51.952;6.146;2022-10-15T10:21:04;100454.66;;;16.67;100.00
31538;BME280;18147;51.952;6.146;2022-10-15T10:23:33;100438.13;;;16.99;100.00
31538;BME280;18147;51.952;6.146;2022-10-15T10:26:01;100437.00;;;16.92;100.00
31538;BME280;18147;51.952;6.146;2022-10-15T10:28:54;100442.41;;;16.25;100.00
31538;BME280;18147;51.952;6.146;2022-10-15T10:31:29;100441.28;;;15.79;100.00
31538;BME280;18147;51.952;6.146;2022-10-15T10:33:55;100441.44;;;15.88;100.00
31538;BME280;18147;51.952;6.146;2022-10-15T10:36:28;100449.06;;;15.73;100.00
31538;BME280;18147;51.952;6.146;2022-10-15T10:42:01;100443.28;;;15.68;100.00
31538;BME280;18147;51.952;6.146;2022-10-15T10:44:36;100435.91;;;15.70;100.00
31538;BME280;18147;51.952;6.146;2022-10-15T10:47:23;100425.25;;;15.59;100.00
31538;BME280;18147;51.952;6.146;2022-10-15T10:49:54;100431.63;;;15.58;100.00
31538;BME280;18147;51.952;6.146;2022-10-15T10:52:31;100425.69;;;15.54;100.00
31538;BME280;18147;51.952;6.146;2022-10-15T10:57:42;100422.53;;;15.39;100.00
31538;BME280;18147;51.952;6.146;2022-10-15T11:00:19;100422.28;;;15.52;100.00
31538;BME280;18147;51.952;6.146;2022-10-15T11:02:47;100426.56;;;15.64;100.00
31538;BME280;18147;51.952;6.146;2022-10-15T11:05:16;100421.88;;;15.57;100.00
31538;BME280;18147;51.952;6.146;2022-10-15T11:10:20;100421.00;;;15.56;100.00
31538;BME280;18147;51.952;6.146;2022-10-15T11:12:59;100419.63;;;15.62;100.00
31538;BME280;18147;51.952;6.146;2022-10-15T11:15:48;100420.47;;;15.62;100.00
31538;BME280;18147;51.952;6.146;2022-10-15T11:22:03;100414.47;;;15.39;100.00
31538;BME280;18147;51.952;6.146;2022-10-15T11:24:45;100406.41;;;15.29;100.00
31538;BME280;18147;51.952;6.146;2022-10-15T11:30:08;100406.94;;;15.23;100.00
31538;BME280;18147;51.952;6.146;2022-10-15T11:38:07;100403.84;;;15.28;100.00
31538;BME280;18147;51.952;6.146;2022-10-15T11:46:49;100392.22;;;15.08;100.00
31538;BME280;18147;51.952;6.146;2022-10-15T11:49:38;100384.72;;;15.02;100.00
31538;BME280;18147;51.952;6.146;2022-10-15T11:52:38;100387.97;;;15.15;100.00
31538;BME280;18147;51.952;6.146;2022-10-15T11:55:18;100386.72;;;15.19;100.00
31538;BME280;18147;51.952;6.146;2022-10-15T11:57:45;100387.28;;;15.13;100.00
31538;BME280;18147;51.952;6.146;2022-10-15T12:00:34;100386.75;;;15.39;100.00
31538;BME280;18147;51.952;6.146;2022-10-15T12:03:08;100384.56;;;15.63;100.00
31538;BME280;18147;51.952;6.146;2022-10-15T12:05:44;100387.06;;;15.55;100.00
31538;BME280;18147;51.952;6.146;2022-10-15T12:08:11;100381.13;;;15.71;100.00
31538;BME280;18147;51.952;6.146;2022-10-15T12:13:44;100377.34;;;15.64;100.00
31538;BME280;18147;51.952;6.146;2022-10-15T12:16:29;100375.50;;;15.64;100.00
31538;BME280;18147;51.952;6.146;2022-10-15T12:19:18;100379.28;;;15.62;100.00
31538;BME280;18147;51.952;6.146;2022-10-15T12:32:26;100364.56;;;15.56;100.00
31538;BME280;18147;51.952;6.146;2022-10-15T12:34:55;100365.75;;;15.63;100.00
31538;BME280;18147;51.952;6.146;2022-10-15T12:37:24;100354.69;;;15.76;100.00
31538;BME280;18147;51.952;6.146;2022-10-15T12:39:55;100365.75;;;15.83;100.00
31538;BME280;18147;51.952;6.146;2022-10-15T12:42:25;100356.94;;;15.90;100.00
31538;BME280;18147;51.952;6.146;2022-10-15T12:44:52;100353.78;;;16.14;100.00
31538;BME280;18147;51.952;6.146;2022-10-15T12:50:18;100353.78;;;16.14;100.00
31538;BME280;18147;51.952;6.146;2022-10-15T12:52:54;100346.97;;;16.20;100.00
31538;BME280;18147;51.952;6.146;2022-10-15T12:55:37;100352.56;;;16.46;100.00
31538;BME280;18147;51.952;6.146;2022-10-15T12:58:31;100343.13;;;16.69;100.00
31538;BME280;18147;51.952;6.146;2022-10-15T13:00:56;100345.41;;;16.64;100.00
31538;BME280;18147;51.952;6.146;2022-10-15T13:03:34;100349.72;;;16.85;100.00
31538;BME280;18147;51.952;6.146;2022-10-15T13:06:21;100349.94;;;16.73;100.00
31538;BME280;18147;51.952;6.146;2022-10-15T13:11:45;100350.94;;;17.00;100.00
31538;BME280;18147;51.952;6.146;2022-10-15T13:16:41;100348.00;;;17.11;100.00
31538;BME280;18147;51.952;6.146;2022-10-15T13:19:22;100351.03;;;17.08;100.00
31538;BME280;18147;51.952;6.146;2022-10-15T13:21:54;100354.63;;;17.17;100.00
31538;BME280;18147;51.952;6.146;2022-10-15T13:24:22;100350.91;;;17.27;100.00
31538;BME280;18147;51.952;6.146;2022-10-15T13:26:48;100361.13;;;17.24;100.00
31538;BME280;18147;51.952;6.146;2022-10-15T13:29:20;100349.50;;;17.41;100.00
31538;BME280;18147;51.952;6.146;2022-10-15T13:31:46;100355.91;;;17.40;100.00
31538;BME280;18147;51.952;6.146;2022-10-15T13:34:31;100360.63;;;17.38;100.00
31538;BME280;18147;51.952;6.146;2022-10-15T13:37:00;100360.16;;;17.43;100.00
31538;BME280;18147;51.952;6.146;2022-10-15T13:39:39;100355.94;;;17.58;100.00
31538;BME280;18147;51.952;6.146;2022-10-15T13:44:37;100358.59;;;17.40;100.00
31538;BME280;18147;51.952;6.146;2022-10-15T13:47:02;100357.78;;;17.57;100.00
31538;BME280;18147;51.952;6.146;2022-10-15T13:49:43;100359.47;;;17.58;100.00
31538;BME280;18147;51.952;6.146;2022-10-15T13:52:08;100368.69;;;17.56;100.00
31538;BME280;18147;51.952;6.146;2022-10-15T13:54:34;100369.88;;;17.53;100.00
31538;BME280;18147;51.952;6.146;2022-10-15T13:57:00;100364.84;;;17.58;100.00
31538;BME280;18147;51.952;6.146;2022-10-15T13:59:27;100371.38;;;17.56;100.00
31538;BME280;18147;51.952;6.146;2022-10-15T14:02:01;100372.91;;;17.41;100.00
31538;BME280;18147;51.952;6.146;2022-10-15T14:04:30;100364.31;;;17.55;100.00
31538;BME280;18147;51.952;6.146;2022-10-15T14:07:00;100364.25;;;17.82;100.00
31538;BME280;18147;51.952;6.146;2022-10-15T14:09:34;100370.72;;;17.90;100.00
31538;BME280;18147;51.952;6.146;2022-10-15T14:12:04;100367.44;;;17.78;100.00
31538;BME280;18147;51.952;6.146;2022-10-15T14:14:35;100372.78;;;17.60;100.00
31538;BME280;18147;51.952;6.146;2022-10-15T14:17:05;100364.59;;;17.52;100.00
31538;BME280;18147;51.952;6.146;2022-10-15T14:19:33;100374.59;;;17.42;100.00
31538;BME280;18147;51.952;6.146;2022-10-15T14:21:59;100369.69;;;17.55;100.00
31538;BME280;18147;51.952;6.146;2022-10-15T14:24:30;100379.41;;;17.48;100.00
31538;BME280;18147;51.952;6.146;2022-10-15T14:27:21;100367.94;;;17.64;100.00
31538;BME280;18147;51.952;6.146;2022-10-15T14:29:55;100378.56;;;17.47;100.00
31538;BME280;18147;51.952;6.146;2022-10-15T14:34:51;100394.13;;;17.08;100.00
31538;BME280;18147;51.952;6.146;2022-10-15T14:42:33;100463.09;;;16.05;100.00